Terminal Aerodrome Forecast
Issued by NWS Jacksonville, FL

Home | Current Version | Previous Version | Text Only | Print | Product List | Glossary On
Versions: 1 2 3 4 5 6 7 8 9 10 11 12 13 14 15
000
FTUS42 KJAX 231140
TAFSSI
TAF
KSSI 231140Z 2312/2412 01006KT P6SM VCSH FEW015 BKN035
     FM231400 05012KT 6SM SHRA SCT020 BKN035
     FM232000 06015G22KT P6SM BKN040
     FM240600 07008KT P6SM SCT020 BKN200=

USA.gov is the U.S. government's official web portal to all federal, state and local government web resources and services.